Time;durP1;ratioP1;P1;durP2;ratioP2;P2;SDS_P1;SDS_P2;PMS_P1;PMS_P2;Temp;Humidity;BMP_temperature;BMP_pressure;BME280_temperature;BME280_humidity;BME280_pressure;Samples;Min_cycle;Max_cycle;Signal;HPM_P1;HPM_P2
2022/03/17 00:00:48;;;;;;;7.88;7.07;;;;;;;;;;1617271;30;21989;-65
2022/03/17 00:01:39;;;;;;;7.80;6.78;;;;;;;;;;1617212;30;21776;-65
2022/03/17 00:02:32;;;;;;;7.95;7.03;;;;;;;;;;1619587;30;21554;-65
2022/03/17 00:03:23;;;;;;;9.18;6.63;;;;;;;;;;1619635;30;21614;-65
2022/03/17 00:04:16;;;;;;;13.73;7.45;;;;;;;;;;1620754;30;21598;-65
2022/03/17 00:05:10;;;;;;;11.00;7.00;;;;;;;;;;1618057;30;21600;-65
2022/03/17 00:06:02;;;;;;;9.75;6.78;;;;;;;;;;1617983;30;21784;-64
2022/03/17 00:06:55;;;;;;;7.38;6.25;;;;;;;;;;1617732;30;21988;-65
2022/03/17 00:07:47;;;;;;;6.95;6.30;;;;;;;;;;1617787;30;21813;-65
2022/03/17 00:08:39;;;;;;;10.52;6.80;;;;;;;;;;1617533;30;22264;-65
2022/03/17 00:09:30;;;;;;;10.50;6.55;;;;;;;;;;1620342;30;21802;-65
2022/03/17 00:10:23;;;;;;;9.32;6.65;;;;;;;;;;1620560;30;22403;-65
2022/03/17 00:11:14;;;;;;;6.60;6.10;;;;;;;;;;1617803;30;21664;-65
2022/03/17 00:12:08;;;;;;;9.32;6.60;;;;;;;;;;1616848;30;22441;-65
2022/03/17 00:12:59;;;;;;;7.40;6.57;;;;;;;;;;1617724;30;21555;-65
2022/03/17 00:13:51;;;;;;;7.50;5.85;;;;;;;;;;1617943;30;22191;-64
2022/03/17 00:14:43;;;;;;;10.48;6.50;;;;;;;;;;1617928;30;21722;-65
2022/03/17 00:15:35;;;;;;;9.00;6.50;;;;;;;;;;1618038;30;21802;-65
2022/03/17 00:16:26;;;;;;;6.25;5.65;;;;;;;;;;1617742;30;21661;-65
2022/03/17 00:17:19;;;;;;;6.80;5.65;;;;;;;;;;1618546;30;21606;-65
2022/03/17 00:18:10;;;;;;;7.55;6.10;;;;;;;;;;1620794;30;21684;-65
2022/03/17 00:19:07;;;;;;;11.18;6.75;;;;;;;;;;1618011;30;21770;-65
2022/03/17 00:19:59;;;;;;;6.65;5.80;;;;;;;;;;1619561;30;21957;-66
2022/03/17 00:20:51;;;;;;;6.40;5.78;;;;;;;;;;1617012;30;22003;-66
2022/03/17 00:21:42;;;;;;;11.00;5.70;;;;;;;;;;1617626;30;21679;-66
2022/03/17 00:22:36;;;;;;;9.45;6.18;;;;;;;;;;1618107;30;22612;-64
2022/03/17 00:23:27;;;;;;;7.80;6.25;;;;;;;;;;1616196;30;21643;-65
2022/03/17 00:24:20;;;;;;;7.20;5.70;;;;;;;;;;1615185;30;21658;-65
2022/03/17 00:25:11;;;;;;;11.40;6.95;;;;;;;;;;1618125;30;21772;-66
2022/03/17 00:26:04;;;;;;;7.40;6.15;;;;;;;;;;1616575;30;21998;-66
2022/03/17 00:26:55;;;;;;;8.95;6.07;;;;;;;;;;1617388;30;22286;-65
2022/03/17 00:27:47;;;;;;;6.53;5.93;;;;;;;;;;1618806;30;21679;-66
2022/03/17 00:28:39;;;;;;;6.65;5.80;;;;;;;;;;1617055;30;21599;-66
2022/03/17 00:29:31;;;;;;;8.50;5.85;;;;;;;;;;1618170;30;21613;-66
2022/03/17 00:30:22;;;;;;;8.90;5.38;;;;;;;;;;1617973;30;21709;-66
2022/03/17 00:31:16;;;;;;;8.85;6.13;;;;;;;;;;1617146;30;21647;-64
2022/03/17 00:32:08;;;;;;;6.78;5.80;;;;;;;;;;1618060;30;21685;-65
2022/03/17 00:33:01;;;;;;;6.43;5.93;;;;;;;;;;1618564;30;21750;-65
2022/03/17 00:33:52;;;;;;;7.00;5.65;;;;;;;;;;1617690;30;22094;-65
2022/03/17 00:35:50;;;;;;;6.20;5.70;;;;;;;;;;1598554;30;21870;-64
2022/03/17 00:36:42;;;;;;;6.20;5.30;;;;;;;;;;1607426;30;21611;-64
2022/03/17 00:37:35;;;;;;;9.80;5.90;;;;;;;;;;1617957;30;22450;-65
2022/03/17 00:38:27;;;;;;;9.70;5.38;;;;;;;;;;1620489;30;21608;-63
2022/03/17 00:39:19;;;;;;;7.38;5.63;;;;;;;;;;1619943;30;22101;-66
2022/03/17 00:40:11;;;;;;;7.13;5.57;;;;;;;;;;1619149;30;22415;-64
2022/03/17 00:41:04;;;;;;;11.18;5.85;;;;;;;;;;1617376;30;21885;-65
2022/03/17 00:41:56;;;;;;;10.15;5.60;;;;;;;;;;1617395;30;22340;-66
2022/03/17 00:42:48;;;;;;;6.50;5.53;;;;;;;;;;1617764;30;21967;-65
2022/03/17 00:43:40;;;;;;;6.47;5.60;;;;;;;;;;1617499;30;21706;-66
2022/03/17 00:44:32;;;;;;;6.93;5.20;;;;;;;;;;1617285;30;21923;-66
2022/03/17 00:45:23;;;;;;;6.30;5.70;;;;;;;;;;1618914;30;22626;-66
2022/03/17 00:46:16;;;;;;;6.88;5.65;;;;;;;;;;1617531;30;21683;-66
2022/03/17 00:47:07;;;;;;;10.02;5.93;;;;;;;;;;1614618;30;22031;-65
2022/03/17 00:48:00;;;;;;;9.10;5.00;;;;;;;;;;1617854;30;21613;-66
2022/03/17 00:48:51;;;;;;;6.00;5.50;;;;;;;;;;1618048;30;21613;-66
2022/03/17 00:49:43;;;;;;;6.60;5.18;;;;;;;;;;1617560;30;22646;-66
2022/03/17 00:50:36;;;;;;;5.97;5.45;;;;;;;;;;1618258;30;22539;-66
2022/03/17 00:51:28;;;;;;;7.75;5.05;;;;;;;;;;1617548;30;22429;-65
2022/03/17 00:52:20;;;;;;;8.02;4.80;;;;;;;;;;1617891;30;22058;-66
2022/03/17 00:53:14;;;;;;;5.95;5.47;;;;;;;;;;1618510;30;21630;-65
2022/03/17 00:54:05;;;;;;;6.57;5.68;;;;;;;;;;1617694;30;21578;-65
2022/03/17 00:54:57;;;;;;;6.18;5.57;;;;;;;;;;1617862;30;22562;-65
2022/03/17 00:55:49;;;;;;;5.32;4.93;;;;;;;;;;1617643;30;22282;-65
2022/03/17 00:56:41;;;;;;;9.05;5.32;;;;;;;;;;1618475;30;22525;-65
2022/03/17 00:57:33;;;;;;;7.13;5.28;;;;;;;;;;1617797;30;21915;-65
2022/03/17 00:58:25;;;;;;;9.18;5.18;;;;;;;;;;1618354;30;21791;-67
2022/03/17 00:59:16;;;;;;;5.35;4.82;;;;;;;;;;1617883;30;21640;-66
2022/03/17 01:00:14;;;;;;;8.23;5.72;;;;;;;;;;1620649;30;21665;-64
2022/03/17 01:01:08;;;;;;;5.13;4.72;;;;;;;;;;1616120;30;22281;-65
2022/03/17 01:01:59;;;;;;;6.10;5.60;;;;;;;;;;1616435;30;22554;-65
2022/03/17 01:02:56;;;;;;;6.25;5.25;;;;;;;;;;1617876;30;22120;-65
2022/03/17 01:03:47;;;;;;;6.93;5.05;;;;;;;;;;1618485;30;21865;-66
2022/03/17 01:04:40;;;;;;;7.38;5.05;;;;;;;;;;1617302;30;21914;-65
2022/03/17 01:05:31;;;;;;;6.20;5.60;;;;;;;;;;1620454;30;21604;-65
2022/03/17 01:06:24;;;;;;;6.15;5.53;;;;;;;;;;1618545;30;22768;-65
2022/03/17 01:07:15;;;;;;;5.75;4.68;;;;;;;;;;1617956;30;21652;-64
2022/03/17 01:08:07;;;;;;;7.97;5.13;;;;;;;;;;1617912;30;21815;-64
2022/03/17 01:09:00;;;;;;;7.70;4.57;;;;;;;;;;1619211;30;22117;-66
2022/03/17 01:09:51;;;;;;;6.22;5.72;;;;;;;;;;1618664;30;22308;-65
2022/03/17 01:10:43;;;;;;;9.15;5.55;;;;;;;;;;1617952;30;21922;-65
2022/03/17 01:11:35;;;;;;;7.30;5.40;;;;;;;;;;1618934;30;22571;-65
2022/03/17 01:12:27;;;;;;;6.90;5.60;;;;;;;;;;1617372;30;22058;-65
2022/03/17 01:13:19;;;;;;;5.88;5.38;;;;;;;;;;1617703;30;21628;-65
2022/03/17 01:14:13;;;;;;;6.63;5.45;;;;;;;;;;1617594;30;22294;-67
2022/03/17 01:15:06;;;;;;;7.20;5.25;;;;;;;;;;1617280;30;22472;-65
2022/03/17 01:15:59;;;;;;;11.93;5.53;;;;;;;;;;1617857;30;21614;-65
2022/03/17 01:16:50;;;;;;;5.88;5.20;;;;;;;;;;1620191;30;22305;-66
2022/03/17 01:17:43;;;;;;;12.82;5.50;;;;;;;;;;1616990;30;22624;-65
2022/03/17 01:18:35;;;;;;;5.50;5.00;;;;;;;;;;1617877;30;21986;-66
2022/03/17 01:19:28;;;;;;;27.60;5.05;;;;;;;;;;1619134;30;21683;-66
2022/03/17 01:20:19;;;;;;;15.57;6.28;;;;;;;;;;1618724;30;21981;-64
2022/03/17 01:21:11;;;;;;;9.48;5.30;;;;;;;;;;1618993;30;21834;-65
2022/03/17 01:22:03;;;;;;;6.80;5.18;;;;;;;;;;1620728;30;21883;-65
2022/03/17 01:22:55;;;;;;;7.05;5.63;;;;;;;;;;1618767;30;21585;-65
2022/03/17 01:23:47;;;;;;;10.93;5.28;;;;;;;;;;1619179;30;21637;-65
2022/03/17 01:24:40;;;;;;;8.18;5.28;;;;;;;;;;1617760;30;21663;-66
2022/03/17 01:25:32;;;;;;;8.57;5.00;;;;;;;;;;1617902;30;21585;-65
2022/03/17 01:26:24;;;;;;;19.52;5.32;;;;;;;;;;1617735;30;21647;-65
2022/03/17 01:27:20;;;;;;;8.38;5.50;;;;;;;;;;1617894;30;21776;-65
2022/03/17 01:28:12;;;;;;;9.82;5.35;;;;;;;;;;1617487;30;22030;-64
2022/03/17 01:29:03;;;;;;;5.85;4.88;;;;;;;;;;1618704;30;21837;-65
2022/03/17 01:29:56;;;;;;;9.30;5.00;;;;;;;;;;1617928;30;21640;-65
2022/03/17 01:30:47;;;;;;;5.78;5.00;;;;;;;;;;1616935;30;22688;-66
2022/03/17 01:31:39;;;;;;;8.10;4.75;;;;;;;;;;1617927;30;21651;-65
2022/03/17 01:32:32;;;;;;;10.40;5.07;;;;;;;;;;1618920;30;22084;-65
2022/03/17 01:33:24;;;;;;;9.45;5.13;;;;;;;;;;1619077;30;21688;-66
2022/03/17 01:34:17;;;;;;;7.50;5.07;;;;;;;;;;1619688;30;21639;-66
2022/03/17 01:35:11;;;;;;;5.40;4.90;;;;;;;;;;1618650;30;21913;-66
2022/03/17 01:36:02;;;;;;;31.33;6.18;;;;;;;;;;1618561;30;21697;-65
2022/03/17 01:36:55;;;;;;;26.95;6.30;;;;;;;;;;1616954;30;21579;-65
2022/03/17 01:37:46;;;;;;;9.60;5.40;;;;;;;;;;1618077;30;21696;-65
2022/03/17 01:38:38;;;;;;;8.85;4.78;;;;;;;;;;1618388;30;21782;-65
2022/03/17 01:39:30;;;;;;;7.78;5.05;;;;;;;;;;1618147;30;21657;-66
2022/03/17 01:40:24;;;;;;;5.20;4.70;;;;;;;;;;1621367;30;21607;-65
2022/03/17 01:41:15;;;;;;;6.18;4.82;;;;;;;;;;1618329;30;21914;-65
2022/03/17 01:42:10;;;;;;;8.85;5.75;;;;;;;;;;1618694;30;21675;-64
2022/03/17 01:43:03;;;;;;;10.75;4.97;;;;;;;;;;1617031;30;21714;-65
2022/03/17 01:43:55;;;;;;;6.43;4.85;;;;;;;;;;1619225;30;22509;-65
2022/03/17 01:44:46;;;;;;;13.10;5.25;;;;;;;;;;1616944;30;21609;-65
2022/03/17 01:45:39;;;;;;;17.70;5.15;;;;;;;;;;1619998;30;21656;-65
2022/03/17 01:47:26;;;;;;;12.73;5.65;;;;;;;;;;1618798;30;21708;-65
2022/03/17 01:47:44;;;;;;;14.65;4.88;;;;;;;;;;1619439;30;22602;-65
2022/03/17 01:48:36;;;;;;;8.50;5.38;;;;;;;;;;1617565;30;21597;-65
2022/03/17 01:49:28;;;;;;;8.88;5.07;;;;;;;;;;1620255;30;21592;-64
2022/03/17 01:50:19;;;;;;;10.75;5.38;;;;;;;;;;1618676;30;21898;-67
2022/03/17 01:51:12;;;;;;;9.68;4.90;;;;;;;;;;1618830;30;21687;-66
2022/03/17 01:52:04;;;;;;;10.48;5.32;;;;;;;;;;1618524;30;21645;-66
2022/03/17 01:52:57;;;;;;;6.90;4.75;;;;;;;;;;1617427;30;22396;-66
2022/03/17 01:53:48;;;;;;;6.85;4.90;;;;;;;;;;1618513;30;22078;-66
2022/03/17 01:54:41;;;;;;;6.75;4.90;;;;;;;;;;1617168;30;22659;-66
2022/03/17 01:55:35;;;;;;;7.25;4.70;;;;;;;;;;1617038;30;22450;-65
2022/03/17 01:56:27;;;;;;;10.38;4.95;;;;;;;;;;1617174;30;21600;-64
2022/03/17 01:57:20;;;;;;;10.95;4.93;;;;;;;;;;1618874;30;22458;-65
2022/03/17 01:58:11;;;;;;;7.82;4.45;;;;;;;;;;1616630;30;22159;-65
2022/03/17 01:59:04;;;;;;;8.35;4.47;;;;;;;;;;1618084;30;21744;-65
2022/03/17 01:59:56;;;;;;;5.82;5.20;;;;;;;;;;1618972;30;21849;-64
2022/03/17 02:00:48;;;;;;;8.70;5.03;;;;;;;;;;1618135;30;22342;-66
2022/03/17 02:01:39;;;;;;;7.25;4.78;;;;;;;;;;1618104;30;21624;-65
2022/03/17 02:02:32;;;;;;;5.30;4.80;;;;;;;;;;1617581;30;21793;-65
2022/03/17 02:03:27;;;;;;;6.40;4.80;;;;;;;;;;1617461;30;21621;-65
2022/03/17 02:04:19;;;;;;;5.32;4.82;;;;;;;;;;1621090;30;21679;-64
2022/03/17 02:05:11;;;;;;;5.57;4.90;;;;;;;;;;1617754;30;21742;-65
2022/03/17 02:06:03;;;;;;;7.40;4.75;;;;;;;;;;1618973;30;21600;-65
2022/03/17 02:06:55;;;;;;;8.70;4.63;;;;;;;;;;1617106;30;21604;-65
2022/03/17 02:07:49;;;;;;;5.25;4.45;;;;;;;;;;1617403;30;22078;-65
2022/03/17 02:08:41;;;;;;;6.57;4.35;;;;;;;;;;1620925;30;22611;-65
2022/03/17 02:09:34;;;;;;;6.40;4.97;;;;;;;;;;1617809;30;21740;-65
2022/03/17 02:10:26;;;;;;;6.18;4.25;;;;;;;;;;1618368;30;21665;-66
2022/03/17 02:13:39;;;;;;;5.40;4.90;;;;;;;;;;1614740;30;21726;-64
2022/03/17 02:14:34;;;;;;;8.32;4.03;;;;;;;;;;1618548;30;21727;-64
2022/03/17 02:15:27;;;;;;;6.60;3.63;;;;;;;;;;1618151;30;21732;-65
2022/03/17 02:16:19;;;;;;;5.75;4.45;;;;;;;;;;1618781;30;22374;-66
2022/03/17 02:17:11;;;;;;;4.78;4.38;;;;;;;;;;1613508;30;22003;-64
2022/03/17 02:18:06;;;;;;;6.80;4.82;;;;;;;;;;1617430;30;21613;-64
2022/03/17 02:18:59;;;;;;;6.43;4.97;;;;;;;;;;1618196;30;21701;-66
2022/03/17 02:19:51;;;;;;;6.72;4.07;;;;;;;;;;1619039;30;21611;-65
2022/03/17 02:20:42;;;;;;;7.38;4.30;;;;;;;;;;1615054;30;21981;-65
2022/03/17 02:21:35;;;;;;;9.73;5.00;;;;;;;;;;1613728;30;21777;-65
2022/03/17 02:22:28;;;;;;;9.50;4.57;;;;;;;;;;1617332;30;21833;-65
2022/03/17 02:25:42;;;;;;;26.77;4.32;;;;;;;;;;1617397;30;22113;-66
2022/03/17 02:26:34;;;;;;;6.35;4.32;;;;;;;;;;1621030;30;22623;-66
2022/03/17 02:27:28;;;;;;;10.43;4.40;;;;;;;;;;1619021;30;21655;-65
2022/03/17 02:28:20;;;;;;;12.57;4.40;;;;;;;;;;1618408;30;22164;-66
2022/03/17 02:29:12;;;;;;;20.00;4.63;;;;;;;;;;1617554;30;21739;-66
2022/03/17 02:30:06;;;;;;;18.38;5.63;;;;;;;;;;1611636;30;22193;-66
2022/03/17 02:30:59;;;;;;;10.30;5.40;;;;;;;;;;1616537;30;21631;-66
2022/03/17 02:31:50;;;;;;;10.48;5.55;;;;;;;;;;1616447;30;21862;-66
2022/03/17 02:32:43;;;;;;;5.85;4.65;;;;;;;;;;1616812;30;21778;-65
2022/03/17 02:33:38;;;;;;;9.98;4.78;;;;;;;;;;1617751;30;22271;-65
2022/03/17 02:34:30;;;;;;;5.88;4.50;;;;;;;;;;1616530;30;22411;-66
2022/03/17 02:35:23;;;;;;;7.82;4.72;;;;;;;;;;1617423;30;21909;-65
2022/03/17 02:36:16;;;;;;;5.35;4.80;;;;;;;;;;1617100;30;22231;-66
2022/03/17 02:37:07;;;;;;;12.15;4.65;;;;;;;;;;1616978;30;22385;-65
2022/03/17 02:38:03;;;;;;;4.47;4.10;;;;;;;;;;1618695;30;21611;-65
2022/03/17 02:38:57;;;;;;;4.45;4.05;;;;;;;;;;1617053;30;21915;-65
2022/03/17 02:39:49;;;;;;;5.40;4.53;;;;;;;;;;1616796;30;21620;-65
2022/03/17 02:40:44;;;;;;;10.93;5.03;;;;;;;;;;1616424;30;21620;-65
2022/03/17 02:41:35;;;;;;;15.85;4.90;;;;;;;;;;1615000;30;21610;-65
2022/03/17 02:42:30;;;;;;;9.48;4.55;;;;;;;;;;1617375;30;21830;-65
2022/03/17 02:43:21;;;;;;;16.13;4.65;;;;;;;;;;1618942;30;22131;-65
2022/03/17 02:44:14;;;;;;;6.55;4.47;;;;;;;;;;1618295;30;21881;-65
2022/03/17 02:45:08;;;;;;;11.68;5.30;;;;;;;;;;1618992;30;21631;-65
2022/03/17 02:46:00;;;;;;;6.22;4.15;;;;;;;;;;1617472;30;21769;-67
2022/03/17 02:46:51;;;;;;;4.85;4.28;;;;;;;;;;1617367;30;21611;-66
2022/03/17 02:47:44;;;;;;;14.65;4.60;;;;;;;;;;1617792;30;22181;-66
2022/03/17 02:48:35;;;;;;;9.18;4.38;;;;;;;;;;1619482;30;22043;-66
2022/03/17 02:49:28;;;;;;;5.35;3.63;;;;;;;;;;1617417;30;22505;-66
2022/03/17 02:50:20;;;;;;;5.28;4.38;;;;;;;;;;1618236;30;21707;-66
2022/03/17 02:51:12;;;;;;;5.25;4.32;;;;;;;;;;1616591;30;21623;-66
2022/03/17 02:52:05;;;;;;;9.38;4.50;;;;;;;;;;1617440;30;21999;-66
2022/03/17 02:53:04;;;;;;;4.45;4.05;;;;;;;;;;1619377;30;21693;-66
2022/03/17 02:53:57;;;;;;;7.68;4.25;;;;;;;;;;1619613;30;22526;-66
2022/03/17 02:54:50;;;;;;;5.07;4.40;;;;;;;;;;1619622;30;21875;-67
2022/03/17 02:55:43;;;;;;;9.68;4.32;;;;;;;;;;1616800;30;21757;-64
2022/03/17 02:56:35;;;;;;;8.85;4.18;;;;;;;;;;1615504;30;21640;-65
2022/03/17 02:57:26;;;;;;;5.13;4.25;;;;;;;;;;1619392;30;21898;-64
2022/03/17 02:58:19;;;;;;;8.55;4.18;;;;;;;;;;1616975;30;21684;-65
2022/03/17 02:59:10;;;;;;;6.65;4.40;;;;;;;;;;1618093;30;22675;-65
2022/03/17 03:00:02;;;;;;;4.13;3.78;;;;;;;;;;1618955;30;22119;-66
2022/03/17 03:00:55;;;;;;;9.75;4.50;;;;;;;;;;1617522;30;22610;-66
2022/03/17 03:01:47;;;;;;;5.15;4.70;;;;;;;;;;1617540;30;21649;-64
2022/03/17 03:02:39;;;;;;;6.93;4.07;;;;;;;;;;1618596;30;21756;-65
2022/03/17 03:03:31;;;;;;;5.80;4.15;;;;;;;;;;1616975;30;22126;-64
2022/03/17 03:04:23;;;;;;;6.97;4.30;;;;;;;;;;1618738;30;21683;-64
2022/03/17 03:05:15;;;;;;;5.00;4.00;;;;;;;;;;1618416;30;21766;-65
2022/03/17 03:06:07;;;;;;;6.65;4.55;;;;;;;;;;1617436;30;21709;-65
2022/03/17 03:06:59;;;;;;;3.85;3.55;;;;;;;;;;1616621;30;21678;-65
2022/03/17 03:07:50;;;;;;;8.98;4.28;;;;;;;;;;1617278;30;21620;-65
2022/03/17 03:08:43;;;;;;;9.65;4.38;;;;;;;;;;1616752;30;21881;-65
2022/03/17 03:09:35;;;;;;;9.90;3.80;;;;;;;;;;1618102;30;22460;-65
2022/03/17 03:10:28;;;;;;;10.02;4.47;;;;;;;;;;1619646;30;22785;-65
2022/03/17 03:11:19;;;;;;;7.70;3.67;;;;;;;;;;1619114;30;21660;-65
2022/03/17 03:12:11;;;;;;;4.50;4.10;;;;;;;;;;1618650;30;21849;-65
2022/03/17 03:13:03;;;;;;;7.28;4.13;;;;;;;;;;1618642;30;21603;-65
2022/03/17 03:13:55;;;;;;;6.28;4.03;;;;;;;;;;1619620;30;22765;-65
2022/03/17 03:14:46;;;;;;;4.20;3.80;;;;;;;;;;1618784;30;22550;-63
2022/03/17 03:15:39;;;;;;;9.50;3.70;;;;;;;;;;1622210;30;22341;-65
2022/03/17 03:16:30;;;;;;;5.63;4.43;;;;;;;;;;1619366;30;21836;-64
2022/03/17 03:17:23;;;;;;;3.85;3.55;;;;;;;;;;1620463;30;23526;-64
2022/03/17 03:18:15;;;;;;;9.73;3.75;;;;;;;;;;1618337;30;21743;-65
2022/03/17 03:19:07;;;;;;;7.07;4.03;;;;;;;;;;1618611;30;21698;-65
2022/03/17 03:19:59;;;;;;;8.80;3.65;;;;;;;;;;1618460;30;21625;-65
2022/03/17 03:20:51;;;;;;;4.93;4.18;;;;;;;;;;1620272;30;21809;-65
2022/03/17 03:21:43;;;;;;;7.38;4.10;;;;;;;;;;1619169;30;21602;-65
2022/03/17 03:22:39;;;;;;;8.77;4.47;;;;;;;;;;1619900;30;21638;-65
2022/03/17 03:23:30;;;;;;;15.05;4.10;;;;;;;;;;1616770;30;21644;-65
2022/03/17 03:24:22;;;;;;;4.68;3.60;;;;;;;;;;1620945;30;22426;-65
2022/03/17 03:25:15;;;;;;;6.05;4.75;;;;;;;;;;1618388;30;21659;-65
2022/03/17 03:26:07;;;;;;;5.43;3.55;;;;;;;;;;1617578;30;21638;-66
2022/03/17 03:26:59;;;;;;;7.95;3.67;;;;;;;;;;1617909;30;21733;-65
2022/03/17 03:27:51;;;;;;;11.35;4.00;;;;;;;;;;1620635;30;21662;-65
2022/03/17 03:28:43;;;;;;;4.55;4.15;;;;;;;;;;1617497;30;21638;-65
2022/03/17 03:29:35;;;;;;;4.43;3.78;;;;;;;;;;1625678;30;22058;-64
2022/03/17 03:30:26;;;;;;;5.30;3.65;;;;;;;;;;1623547;30;21917;-64
2022/03/17 03:31:18;;;;;;;7.13;3.90;;;;;;;;;;1619731;30;21624;-64
2022/03/17 03:32:10;;;;;;;7.88;4.10;;;;;;;;;;1619457;30;21600;-65
2022/03/17 03:33:03;;;;;;;4.18;3.78;;;;;;;;;;1618479;30;21720;-65
2022/03/17 03:33:54;;;;;;;3.97;3.58;;;;;;;;;;1617991;30;22039;-65
2022/03/17 03:34:46;;;;;;;6.88;4.13;;;;;;;;;;1617832;30;21619;-65
2022/03/17 03:37:58;;;;;;;;;;;;;;;;;;1619116;30;22228;-64
2022/03/17 03:38:51;;;;;;;7.65;3.58;;;;;;;;;;1617982;30;21609;-65
2022/03/17 03:39:42;;;;;;;6.47;3.53;;;;;;;;;;1616558;30;21702;-65
2022/03/17 03:40:36;;;;;;;6.55;3.65;;;;;;;;;;1618376;30;21942;-65
2022/03/17 03:41:28;;;;;;;8.98;4.07;;;;;;;;;;1617489;30;21582;-64
2022/03/17 03:42:21;;;;;;;5.55;3.80;;;;;;;;;;1622616;30;22291;-65
2022/03/17 03:43:12;;;;;;;4.93;4.03;;;;;;;;;;1618331;30;22294;-65
2022/03/17 03:44:05;;;;;;;6.45;4.28;;;;;;;;;;1619666;30;22283;-65
2022/03/17 03:44:57;;;;;;;8.65;4.78;;;;;;;;;;1617516;30;21603;-65
2022/03/17 03:45:50;;;;;;;4.50;4.10;;;;;;;;;;1618289;30;22313;-65
2022/03/17 03:46:43;;;;;;;9.95;3.97;;;;;;;;;;1619203;30;21958;-64
2022/03/17 03:47:34;;;;;;;10.75;4.22;;;;;;;;;;1617739;30;21791;-65
2022/03/17 03:48:26;;;;;;;8.43;3.72;;;;;;;;;;1618127;30;21926;-64
2022/03/17 03:49:19;;;;;;;13.82;4.43;;;;;;;;;;1618251;30;21971;-65
2022/03/17 03:50:11;;;;;;;5.90;4.15;;;;;;;;;;1618033;30;22125;-65
2022/03/17 03:51:03;;;;;;;5.78;3.83;;;;;;;;;;1618191;30;22278;-65
2022/03/17 03:51:55;;;;;;;4.70;3.63;;;;;;;;;;1617945;30;21632;-66
2022/03/17 03:52:46;;;;;;;4.38;3.88;;;;;;;;;;1620888;30;21667;-66
2022/03/17 03:54:49;;;;;;;15.07;4.35;;;;;;;;;;1622108;30;21619;-66
2022/03/17 03:55:41;;;;;;;4.50;3.90;;;;;;;;;;1620495;30;21907;-64
2022/03/17 03:56:34;;;;;;;6.05;4.20;;;;;;;;;;1618539;30;22562;-65
2022/03/17 03:57:25;;;;;;;11.75;4.15;;;;;;;;;;1618944;30;21567;-65
2022/03/17 03:58:18;;;;;;;6.20;4.28;;;;;;;;;;1617364;30;21804;-65
2022/03/17 03:59:11;;;;;;;11.63;3.90;;;;;;;;;;1610963;30;21742;-65
2022/03/17 04:00:08;;;;;;;12.73;4.40;;;;;;;;;;1612981;30;21796;-64
2022/03/17 04:00:59;;;;;;;4.78;3.40;;;;;;;;;;1617566;30;21586;-65
2022/03/17 04:01:55;;;;;;;11.80;4.20;;;;;;;;;;1617753;30;22594;-65
2022/03/17 04:02:46;;;;;;;8.68;3.92;;;;;;;;;;1618648;30;22393;-65
2022/03/17 04:03:42;;;;;;;10.48;4.05;;;;;;;;;;1618935;30;21595;-65
2022/03/17 04:04:34;;;;;;;12.55;3.90;;;;;;;;;;1622125;30;22748;-65
2022/03/17 04:05:28;;;;;;;6.82;4.13;;;;;;;;;;1618146;30;21656;-65
2022/03/17 04:06:19;;;;;;;4.90;4.07;;;;;;;;;;1619145;30;21705;-65
2022/03/17 04:07:12;;;;;;;4.35;3.95;;;;;;;;;;1618862;30;21768;-66
2022/03/17 04:08:04;;;;;;;4.40;4.00;;;;;;;;;;1618217;30;21657;-65
2022/03/17 04:08:57;;;;;;;6.05;4.13;;;;;;;;;;1619309;30;22520;-65
2022/03/17 04:09:48;;;;;;;5.55;3.90;;;;;;;;;;1618906;30;21998;-65
2022/03/17 04:10:42;;;;;;;4.45;3.60;;;;;;;;;;1616974;30;22039;-65
2022/03/17 04:11:33;;;;;;;11.88;4.47;;;;;;;;;;1619003;30;22008;-65
2022/03/17 04:12:25;;;;;;;7.45;3.65;;;;;;;;;;1614746;30;21632;-65
2022/03/17 04:13:17;;;;;;;5.93;4.65;;;;;;;;;;1617866;30;21682;-65
2022/03/17 04:14:09;;;;;;;6.80;3.70;;;;;;;;;;1618058;30;21639;-65
2022/03/17 04:15:00;;;;;;;6.97;3.92;;;;;;;;;;1618817;30;21583;-65
2022/03/17 04:15:53;;;;;;;5.72;3.42;;;;;;;;;;1620488;30;21725;-65
2022/03/17 04:16:44;;;;;;;6.50;4.20;;;;;;;;;;1620324;30;21626;-64
2022/03/17 04:17:37;;;;;;;8.23;4.10;;;;;;;;;;1619031;30;21820;-66
2022/03/17 04:18:28;;;;;;;6.75;3.97;;;;;;;;;;1617849;30;22591;-64
2022/03/17 04:19:20;;;;;;;8.10;3.88;;;;;;;;;;1619462;30;21750;-65
2022/03/17 04:20:12;;;;;;;4.75;4.03;;;;;;;;;;1619293;30;21614;-64
2022/03/17 04:21:04;;;;;;;5.28;4.15;;;;;;;;;;1616720;30;22471;-65
2022/03/17 04:21:56;;;;;;;6.47;3.80;;;;;;;;;;1617827;30;21681;-66
2022/03/17 04:22:48;;;;;;;12.60;4.10;;;;;;;;;;1617951;30;21588;-65
2022/03/17 04:23:39;;;;;;;6.20;4.18;;;;;;;;;;1618517;30;21780;-65
2022/03/17 04:24:32;;;;;;;12.43;3.90;;;;;;;;;;1619188;30;22135;-64
2022/03/17 04:25:23;;;;;;;8.98;4.30;;;;;;;;;;1619307;30;21970;-65
2022/03/17 04:26:17;;;;;;;7.30;3.72;;;;;;;;;;1618685;30;21715;-65
2022/03/17 04:27:08;;;;;;;10.00;3.83;;;;;;;;;;1618089;30;21638;-65
2022/03/17 04:28:00;;;;;;;7.18;4.32;;;;;;;;;;1617138;30;21981;-66
2022/03/17 04:28:52;;;;;;;8.73;3.83;;;;;;;;;;1616773;30;21662;-66
2022/03/17 04:29:44;;;;;;;6.82;3.88;;;;;;;;;;1618514;30;21612;-66
2022/03/17 04:30:36;;;;;;;7.80;4.28;;;;;;;;;;1617540;30;22574;-66
2022/03/17 04:31:29;;;;;;;5.00;3.88;;;;;;;;;;1618706;30;21596;-65
2022/03/17 04:32:20;;;;;;;4.22;3.75;;;;;;;;;;1617969;30;22019;-66
2022/03/17 04:33:13;;;;;;;5.30;4.10;;;;;;;;;;1619340;30;22611;-66
2022/03/17 04:34:04;;;;;;;11.00;4.22;;;;;;;;;;1616632;30;21653;-64
2022/03/17 04:34:56;;;;;;;8.95;3.35;;;;;;;;;;1618734;30;21711;-65
2022/03/17 04:35:47;;;;;;;9.43;3.85;;;;;;;;;;1617484;30;21755;-65
2022/03/17 04:36:40;;;;;;;5.53;4.25;;;;;;;;;;1616908;30;21639;-64
2022/03/17 04:37:32;;;;;;;18.85;4.93;;;;;;;;;;1617295;30;22056;-65
2022/03/17 04:38:25;;;;;;;6.80;4.05;;;;;;;;;;1617906;30;21809;-65
2022/03/17 04:39:16;;;;;;;5.63;3.65;;;;;;;;;;1618723;30;21743;-65
2022/03/17 04:40:10;;;;;;;7.75;4.18;;;;;;;;;;1619283;29;21635;-65
2022/03/17 04:41:02;;;;;;;12.13;4.00;;;;;;;;;;1618499;30;22029;-65
2022/03/17 04:41:55;;;;;;;6.38;4.22;;;;;;;;;;1618651;30;21907;-64
2022/03/17 04:42:47;;;;;;;6.28;4.47;;;;;;;;;;1617731;30;21766;-65
2022/03/17 04:43:40;;;;;;;4.68;3.88;;;;;;;;;;1618764;30;22039;-66
2022/03/17 04:44:31;;;;;;;9.88;4.35;;;;;;;;;;1618415;30;23759;-65
2022/03/17 04:45:24;;;;;;;7.88;3.65;;;;;;;;;;1620576;30;21599;-66
2022/03/17 04:46:16;;;;;;;7.30;3.72;;;;;;;;;;1618976;30;21782;-66
2022/03/17 04:47:08;;;;;;;6.75;4.05;;;;;;;;;;1620912;30;21649;-66
2022/03/17 04:48:00;;;;;;;13.85;4.10;;;;;;;;;;1619332;30;21702;-66
2022/03/17 04:48:52;;;;;;;10.95;4.00;;;;;;;;;;1619133;30;22458;-67
2022/03/17 04:49:43;;;;;;;12.70;4.20;;;;;;;;;;1618619;30;21952;-66
2022/03/17 04:50:35;;;;;;;16.65;4.45;;;;;;;;;;1618035;30;21732;-66
2022/03/17 04:51:27;;;;;;;13.40;4.32;;;;;;;;;;1620304;30;22351;-65
2022/03/17 04:53:29;;;;;;;10.75;4.80;;;;;;;;;;1617681;30;22488;-64
2022/03/17 04:54:21;;;;;;;9.55;4.35;;;;;;;;;;1616558;30;21606;-65
2022/03/17 04:55:13;;;;;;;10.38;4.15;;;;;;;;;;1619388;30;22440;-65
2022/03/17 04:56:08;;;;;;;10.35;4.55;;;;;;;;;;1618963;30;22003;-65
2022/03/17 04:57:01;;;;;;;5.70;4.38;;;;;;;;;;1617966;30;21966;-65
2022/03/17 04:57:53;;;;;;;7.63;4.30;;;;;;;;;;1618845;30;21820;-64
2022/03/17 04:58:46;;;;;;;11.35;4.63;;;;;;;;;;1618031;30;22754;-65
2022/03/17 04:59:37;;;;;;;6.43;4.72;;;;;;;;;;1616765;30;21970;-65
2022/03/17 05:00:29;;;;;;;18.27;4.25;;;;;;;;;;1617067;30;22465;-64
2022/03/17 05:01:23;;;;;;;8.32;4.32;;;;;;;;;;1616279;30;21590;-65
2022/03/17 05:02:14;;;;;;;6.32;4.07;;;;;;;;;;1618485;30;21863;-64
2022/03/17 05:03:07;;;;;;;8.40;4.68;;;;;;;;;;1617995;30;22609;-65
2022/03/17 05:03:58;;;;;;;22.90;5.53;;;;;;;;;;1619810;30;22483;-65
2022/03/17 05:04:52;;;;;;;11.48;4.30;;;;;;;;;;1619337;30;21564;-65
2022/03/17 05:05:44;;;;;;;10.60;3.97;;;;;;;;;;1617376;30;21633;-65
2022/03/17 05:06:36;;;;;;;16.85;4.70;;;;;;;;;;1617216;30;22298;-65
2022/03/17 05:07:28;;;;;;;23.80;4.82;;;;;;;;;;1619116;30;21718;-64
2022/03/17 05:08:20;;;;;;;7.65;3.92;;;;;;;;;;1617886;30;22435;-65
2022/03/17 05:09:12;;;;;;;10.38;5.18;;;;;;;;;;1616243;30;21739;-65
2022/03/17 05:10:05;;;;;;;7.28;4.40;;;;;;;;;;1619144;30;21676;-65
2022/03/17 05:10:56;;;;;;;10.05;4.45;;;;;;;;;;1619428;30;21612;-65
2022/03/17 05:11:49;;;;;;;8.38;4.38;;;;;;;;;;1620187;30;22767;-64
2022/03/17 05:12:41;;;;;;;14.68;4.80;;;;;;;;;;1617224;30;21764;-65
2022/03/17 05:13:34;;;;;;;5.88;4.68;;;;;;;;;;1618951;30;21600;-64
2022/03/17 05:14:25;;;;;;;9.98;4.40;;;;;;;;;;1615763;30;21990;-66
2022/03/17 05:15:18;;;;;;;14.00;4.82;;;;;;;;;;1618586;30;21614;-66
2022/03/17 05:16:09;;;;;;;9.20;4.72;;;;;;;;;;1618945;30;21628;-66
2022/03/17 05:17:01;;;;;;;15.27;4.75;;;;;;;;;;1618066;30;22234;-66
2022/03/17 05:17:53;;;;;;;7.05;4.13;;;;;;;;;;1617652;30;21658;-65
2022/03/17 05:18:47;;;;;;;9.43;4.88;;;;;;;;;;1619065;30;21582;-65
2022/03/17 05:19:38;;;;;;;11.90;3.95;;;;;;;;;;1618522;30;22081;-64
2022/03/17 05:20:31;;;;;;;10.48;4.50;;;;;;;;;;1617898;30;21671;-65
2022/03/17 05:21:25;;;;;;;14.90;4.78;;;;;;;;;;1619294;30;21627;-65
2022/03/17 05:22:16;;;;;;;5.78;4.68;;;;;;;;;;1619110;30;22723;-65
2022/03/17 05:23:10;;;;;;;6.63;4.38;;;;;;;;;;1618617;30;21597;-65
2022/03/17 05:24:02;;;;;;;7.57;4.57;;;;;;;;;;1617872;30;21727;-65